Time;durP1;ratioP1;P1;durP2;ratioP2;P2;SDS_P1;SDS_P2;PMS_P1;PMS_P2;Temp;Humidity;BMP_temperature;BMP_pressure;BME280_temperature;BME280_humidity;BME280_pressure;Samples;Min_cycle;Max_cycle;Signal;HPM_P1;HPM_P2
2021/04/29 00:02:01;;;;;;;;;63.67;48.33;;;;;11.86;87.23;99063.72;3594942;40;9882;-47
2021/04/29 00:04:29;;;;;;;;;60.00;48.00;;;;;11.94;86.73;99055.91;3589395;40;9850;-48
2021/04/29 00:06:56;;;;;;;;;63.33;46.00;;;;;11.87;86.41;99062.75;3587058;40;9780;-48
2021/04/29 00:09:23;;;;;;;;;62.67;45.00;;;;;11.92;87.20;99060.56;3587509;40;10107;-47
2021/04/29 00:11:50;;;;;;;;;66.67;49.67;;;;;11.99;86.04;99056.41;3587598;40;9797;-48
2021/04/29 00:14:17;;;;;;;;;60.33;46.00;;;;;12.00;86.79;99063.50;3587225;40;10347;-46
2021/04/29 00:16:44;;;;;;;;;60.33;47.33;;;;;11.95;86.23;99057.63;3593998;40;9929;-47
2021/04/29 00:19:11;;;;;;;;;62.67;43.33;;;;;11.88;86.42;99067.16;3597582;39;9872;-49
2021/04/29 00:21:39;;;;;;;;;64.33;50.67;;;;;11.86;86.97;99059.19;3593712;39;9825;-48
2021/04/29 00:24:07;;;;;;;;;64.67;50.00;;;;;11.90;86.67;99059.84;3588140;40;10029;-48
2021/04/29 00:26:34;;;;;;;;;63.67;48.33;;;;;11.95;87.39;99062.16;3590090;39;9968;-49
2021/04/29 00:29:01;;;;;;;;;53.67;43.00;;;;;11.97;87.09;99061.06;3587326;40;9941;-49
2021/04/29 00:31:30;;;;;;;;;62.33;46.33;;;;;12.07;86.62;99062.06;3589673;40;9874;-47
2021/04/29 00:33:58;;;;;;;;;60.67;43.67;;;;;11.98;87.38;99062.78;3595057;39;9887;-46
2021/04/29 00:36:26;;;;;;;;;58.67;45.33;;;;;12.03;87.29;99065.97;3591421;40;10054;-47
2021/04/29 00:38:53;;;;;;;;;63.33;48.00;;;;;11.84;88.42;99060.25;3592455;40;9863;-48
2021/04/29 00:41:19;;;;;;;;;59.67;47.33;;;;;11.93;87.78;99059.59;3594137;40;9940;-48
2021/04/29 00:43:47;;;;;;;;;60.00;46.00;;;;;11.93;87.79;99053.34;3586988;40;9797;-48
2021/04/29 00:46:14;;;;;;;;;63.00;45.67;;;;;11.89;87.83;99058.09;3591347;40;10093;-47
2021/04/29 00:48:45;;;;;;;;;63.67;48.67;;;;;11.97;87.04;99060.19;3589333;39;9887;-47
2021/04/29 00:51:14;;;;;;;;;65.00;49.00;;;;;11.97;88.26;99060.19;3587499;40;9831;-48
2021/04/29 00:53:43;;;;;;;;;67.67;48.67;;;;;12.02;88.28;99058.88;3591527;40;9922;-49
2021/04/29 00:56:12;;;;;;;;;64.67;49.33;;;;;12.09;88.14;99059.25;3595530;39;9853;-50
2021/04/29 00:58:40;;;;;;;;;60.67;48.33;;;;;11.98;88.38;99056.53;3596706;40;9887;-49
2021/04/29 01:01:08;;;;;;;;;64.00;50.67;;;;;11.92;87.98;99049.78;3592783;40;9851;-47
2021/04/29 01:03:52;;;;;;;;;59.00;48.00;;;;;11.97;87.98;99055.66;3588339;40;9829;-47
2021/04/29 01:06:39;;;;;;;;;60.00;48.00;;;;;11.98;88.99;99051.13;3588220;40;9847;-46
2021/04/29 01:09:24;;;;;;;;;61.33;47.67;;;;;12.12;88.16;99050.09;3596134;40;9881;-48
2021/04/29 01:12:00;;;;;;;;;65.67;48.00;;;;;12.10;87.40;99060.97;3593766;40;10044;-48
2021/04/29 01:14:30;;;;;;;;;64.00;48.33;;;;;12.08;88.27;99055.72;3594904;39;10010;-48
2021/04/29 01:16:58;;;;;;;;;66.67;52.33;;;;;11.94;88.23;99061.28;3587443;40;9897;-49
2021/04/29 01:19:42;;;;;;;;;66.33;50.00;;;;;11.97;88.56;99062.91;3591071;40;9891;-46
2021/04/29 01:22:11;;;;;;;;;64.67;51.33;;;;;11.95;89.42;99049.53;3596461;39;10019;-48
2021/04/29 01:24:58;;;;;;;;;76.00;57.33;;;;;11.88;89.31;99051.03;3595806;40;10004;-50
2021/04/29 01:27:26;;;;;;;;;80.67;61.67;;;;;11.81;89.00;99055.13;3595165;40;10140;-47
2021/04/29 01:29:53;;;;;;;;;68.00;52.00;;;;;11.94;89.17;99061.28;3594452;40;10415;-48
2021/04/29 01:32:20;;;;;;;;;70.67;53.00;;;;;12.12;88.57;99053.63;3588521;40;9903;-47
2021/04/29 01:34:48;;;;;;;;;72.67;52.33;;;;;11.88;88.56;99059.09;3592271;40;10023;-49
2021/04/29 01:37:15;;;;;;;;;59.33;43.67;;;;;11.84;89.20;99054.88;3585774;40;10028;-47
2021/04/29 01:39:43;;;;;;;;;67.00;50.67;;;;;11.85;89.73;99056.59;3587382;40;9905;-51
2021/04/29 01:42:10;;;;;;;;;66.33;50.67;;;;;11.87;89.84;99060.03;3591105;40;9857;-47
2021/04/29 01:44:38;;;;;;;;;67.67;52.00;;;;;11.99;88.67;99059.09;3596034;40;9878;-48
2021/04/29 01:47:06;;;;;;;;;71.33;51.00;;;;;11.86;89.98;99050.28;3587893;40;9959;-47
2021/04/29 01:49:33;;;;;;;;;69.67;49.00;;;;;11.91;89.80;99048.09;3591636;39;9889;-47
2021/04/29 01:52:00;;;;;;;;;66.33;51.33;;;;;11.82;89.17;99051.44;3591470;40;9946;-48
2021/04/29 01:54:29;;;;;;;;;68.00;52.33;;;;;11.94;89.52;99055.91;3594257;40;9822;-50
2021/04/29 01:56:56;;;;;;;;;70.67;54.33;;;;;11.88;89.66;99056.41;3597452;39;9881;-48
2021/04/29 01:59:23;;;;;;;;;69.33;52.00;;;;;11.82;89.74;99056.81;3590997;40;9992;-51
2021/04/29 02:01:50;;;;;;;;;60.67;47.33;;;;;11.80;89.58;99053.41;3589768;40;9951;-47
2021/04/29 02:04:17;;;;;;;;;70.67;52.33;;;;;11.87;90.08;99049.28;3587725;40;9986;-51
2021/04/29 02:06:46;;;;;;;;;61.67;46.00;;;;;11.87;89.65;99046.59;3587517;40;9896;-49
2021/04/29 02:09:14;;;;;;;;;60.33;47.67;;;;;11.92;90.28;99043.56;3588218;40;9906;-48
2021/04/29 02:12:03;;;;;;;;;55.33;44.33;;;;;11.94;89.31;99041.63;3593126;40;9826;-49
2021/04/29 02:15:08;;;;;;;;;61.67;47.67;;;;;11.82;89.64;99046.06;3594007;40;9809;-49
2021/04/29 02:17:53;;;;;;;;;66.00;49.00;;;;;11.69;90.95;99037.22;3576005;40;9762;-46
2021/04/29 02:20:22;;;;;;;;;67.00;49.00;;;;;11.71;90.37;99049.56;3594667;40;9870;-47
2021/04/29 02:22:50;;;;;;;;;61.67;49.33;;;;;11.68;90.71;99044.44;3596871;40;9919;-49
2021/04/29 02:25:25;;;;;;;;;65.67;49.00;;;;;11.75;90.72;99051.06;3590248;39;9952;-47
2021/04/29 02:27:52;;;;;;;;;68.00;49.00;;;;;11.70;90.96;99047.88;3590165;40;9823;-46
2021/04/29 02:30:19;;;;;;;;;64.33;49.67;;;;;11.62;91.05;99044.91;3587672;40;10143;-47
2021/04/29 02:32:46;;;;;;;;;66.00;50.67;;;;;11.59;91.19;99053.22;3590433;40;10071;-47
2021/04/29 02:35:17;;;;;;;;;67.67;51.33;;;;;11.74;90.07;99051.19;3589227;40;9973;-46
2021/04/29 02:37:50;;;;;;;;;68.00;52.33;;;;;11.58;90.68;99055.03;3588173;40;9896;-50
2021/04/29 02:40:19;;;;;;;;;66.67;51.33;;;;;11.56;92.11;99048.09;3587960;40;9974;-47
2021/04/29 02:43:05;;;;;;;;;67.00;49.67;;;;;11.59;91.87;99048.69;3595124;40;9994;-48
2021/04/29 02:45:33;;;;;;;;;67.67;49.67;;;;;11.69;91.29;99050.66;3587752;40;9899;-47
2021/04/29 02:48:00;;;;;;;;;58.67;48.33;;;;;11.50;91.87;99057.44;3594077;40;9929;-48
2021/04/29 02:50:27;;;;;;;;;71.33;53.00;;;;;11.59;91.61;99058.59;3605295;39;9962;-49
2021/04/29 02:52:56;;;;;;;;;70.00;51.00;;;;;11.66;90.38;99062.50;3600219;39;10079;-48
2021/04/29 02:55:24;;;;;;;;;72.67;53.00;;;;;11.60;91.23;99058.47;3592643;40;9949;-47
2021/04/29 02:58:05;;;;;;;;;58.00;45.67;;;;;11.71;91.11;99056.78;3596551;40;10101;-49
2021/04/29 03:00:34;;;;;;;;;66.67;50.33;;;;;11.59;91.04;99059.44;3597131;39;9843;-46
2021/04/29 03:03:03;;;;;;;;;72.00;50.67;;;;;11.58;91.93;99060.41;3595324;40;9926;-48
2021/04/29 03:05:30;;;;;;;;;70.67;53.00;;;;;11.54;91.77;99069.69;3597612;39;10221;-46
2021/04/29 03:07:58;;;;;;;;;68.33;52.33;;;;;11.60;92.18;99074.59;3591125;40;9965;-50
2021/04/29 03:10:26;;;;;;;;;71.67;55.33;;;;;11.62;91.49;99069.97;3586691;40;9993;-47
2021/04/29 03:12:53;;;;;;;;;70.33;53.33;;;;;11.60;92.06;99074.59;3589683;40;10121;-49
2021/04/29 03:15:21;;;;;;;;;67.67;53.33;;;;;11.42;92.94;99066.06;3597246;39;10528;-50
2021/04/29 03:17:48;;;;;;;;;70.33;52.67;;;;;11.47;93.46;99065.75;3593602;40;10029;-50
2021/04/29 03:20:35;;;;;;;;;72.67;54.00;;;;;11.44;93.10;99060.59;3588069;40;10079;-48
2021/04/29 03:23:01;;;;;;;;;75.67;59.00;;;;;11.43;93.08;99066.97;3588210;40;10003;-47
2021/04/29 03:25:28;;;;;;;;;72.67;54.00;;;;;11.63;91.71;99070.81;3586361;40;10078;-48
2021/04/29 03:27:55;;;;;;;;;72.33;54.00;;;;;11.39;91.84;99070.84;3586727;40;10070;-50
2021/04/29 03:30:22;;;;;;;;;75.67;55.33;;;;;11.34;92.93;99073.00;3589697;40;10282;-48
2021/04/29 03:32:49;;;;;;;;;75.33;56.00;;;;;11.33;92.35;99069.47;3587264;40;10020;-49
2021/04/29 03:35:16;;;;;;;;;75.33;54.33;;;;;11.24;92.28;99078.19;3594836;40;10552;-50
2021/04/29 03:37:44;;;;;;;;;74.00;53.33;;;;;11.26;92.70;99062.81;3591733;40;10044;-47
2021/04/29 03:40:11;;;;;;;;;75.33;54.67;;;;;11.34;92.04;99065.81;3590769;40;10100;-48
2021/04/29 03:42:38;;;;;;;;;72.33;53.00;;;;;11.20;92.50;99061.47;3590318;40;9977;-46
2021/04/29 03:45:07;;;;;;;;;72.67;56.00;;;;;11.39;91.42;99074.38;3597296;39;9988;-50
2021/04/29 03:47:34;;;;;;;;;71.67;57.67;;;;;11.14;92.63;99078.03;3593131;40;9947;-46
2021/04/29 03:50:01;;;;;;;;;69.67;52.67;;;;;11.16;92.69;99073.44;3596047;39;10010;-46
2021/04/29 03:52:28;;;;;;;;;68.00;53.00;;;;;11.27;91.87;99074.44;3587773;40;9981;-49
2021/04/29 03:54:54;;;;;;;;;66.67;50.67;;;;;11.26;91.83;99084.31;3587372;40;10087;-47
2021/04/29 03:57:21;;;;;;;;;73.00;53.00;;;;;10.97;91.70;99090.00;3587608;40;10031;-48
2021/04/29 03:59:48;;;;;;;;;75.00;50.00;;;;;11.04;92.59;99086.91;3589193;40;9954;-48
2021/04/29 04:02:15;;;;;;;;;71.00;51.33;;;;;11.10;92.18;99094.50;3580981;40;10023;-47
2021/04/29 04:04:42;;;;;;;;;74.33;52.67;;;;;11.04;91.78;99092.28;3590410;40;9983;-48
2021/04/29 04:07:09;;;;;;;;;68.67;51.00;;;;;11.05;91.87;99094.81;3592123;40;10006;-48
2021/04/29 04:09:35;;;;;;;;;68.00;53.00;;;;;11.12;91.91;99093.41;3596429;40;10773;-48
2021/04/29 04:12:02;;;;;;;;;63.00;50.33;;;;;11.00;92.16;99094.31;3591133;40;9936;-48
2021/04/29 04:14:35;;;;;;;;;70.33;52.00;;;;;10.97;92.23;99087.31;3595438;40;10144;-47
2021/04/29 04:17:02;;;;;;;;;67.67;51.67;;;;;11.10;91.43;99084.59;3594396;40;9991;-46
2021/04/29 04:19:29;;;;;;;;;78.00;56.33;;;;;11.14;91.37;99083.41;3595098;40;10205;-48
2021/04/29 04:21:56;;;;;;;;;74.33;54.33;;;;;10.91;92.24;99097.66;3589001;40;10074;-47
2021/04/29 04:24:23;;;;;;;;;69.33;53.00;;;;;11.15;91.37;99089.66;3589281;40;10318;-48
2021/04/29 04:26:50;;;;;;;;;68.00;51.00;;;;;11.27;90.93;99082.50;3594212;39;10088;-46
2021/04/29 04:29:17;;;;;;;;;69.00;52.67;;;;;10.99;91.37;99084.53;3592445;40;9998;-47
2021/04/29 04:31:43;;;;;;;;;72.00;50.00;;;;;10.95;91.56;99083.03;3596277;40;10110;-49
2021/04/29 04:34:11;;;;;;;;;61.00;46.67;;;;;11.27;89.83;99078.00;3594429;40;10237;-47
2021/04/29 04:36:37;;;;;;;;;68.33;50.00;;;;;11.08;90.50;99086.53;3597318;39;10201;-48
2021/04/29 04:39:05;;;;;;;;;63.33;48.33;;;;;11.04;90.20;99087.75;3596555;39;10110;-46
2021/04/29 04:41:32;;;;;;;;;66.67;46.33;;;;;10.79;91.17;99085.97;3588538;39;9841;-46
2021/04/29 04:43:58;;;;;;;;;63.00;45.33;;;;;10.71;91.61;99085.66;3596565;39;10050;-47
2021/04/29 04:46:26;;;;;;;;;61.00;49.33;;;;;10.87;91.36;99090.78;3588459;40;10685;-48
2021/04/29 04:48:53;;;;;;;;;60.67;47.00;;;;;10.77;91.01;99102.22;3593282;39;9835;-48
2021/04/29 04:51:20;;;;;;;;;59.33;46.33;;;;;10.82;90.50;99101.00;3598018;39;9892;-46
2021/04/29 04:53:47;;;;;;;;;62.00;47.00;;;;;10.88;90.88;99101.44;3593576;39;10015;-50
2021/04/29 04:56:14;;;;;;;;;62.33;47.00;;;;;10.89;91.32;99099.59;3592631;40;9855;-49
2021/04/29 04:58:41;;;;;;;;;63.33;43.67;;;;;11.05;91.09;99102.88;3592640;39;9970;-50
2021/04/29 05:01:08;;;;;;;;;66.33;52.00;;;;;10.83;91.08;99089.31;3595113;40;9999;-47
2021/04/29 05:03:35;;;;;;;;;62.33;47.33;;;;;10.98;91.69;99093.59;3593366;39;9910;-46
2021/04/29 05:06:02;;;;;;;;;68.67;51.67;;;;;11.09;90.74;99085.59;3595822;39;9897;-48
2021/04/29 05:08:29;;;;;;;;;66.33;51.00;;;;;11.17;89.99;99077.81;3596135;40;9993;-49
2021/04/29 05:10:56;;;;;;;;;68.00;50.33;;;;;11.18;89.74;99095.63;3587451;40;10495;-50
2021/04/29 05:13:23;;;;;;;;;69.00;50.00;;;;;11.10;89.42;99092.66;3587189;40;10151;-48
2021/04/29 05:15:50;;;;;;;;;63.00;48.67;;;;;11.22;90.35;99082.84;3594678;40;9882;-47
2021/04/29 05:18:17;;;;;;;;;72.67;54.00;;;;;11.21;89.55;99084.66;3589465;40;10681;-50
2021/04/29 05:20:45;;;;;;;;;66.33;48.67;;;;;11.24;90.74;99075.50;3590563;40;9812;-47
2021/04/29 05:23:12;;;;;;;;;57.33;43.00;;;;;11.38;89.22;99079.88;3596736;39;9925;-47
2021/04/29 05:25:39;;;;;;;;;62.67;46.00;;;;;11.21;90.17;99079.28;3587513;39;9955;-49
2021/04/29 05:28:06;;;;;;;;;64.67;50.33;;;;;11.22;90.20;99080.16;3585977;40;10129;-48
2021/04/29 05:30:33;;;;;;;;;70.33;49.67;;;;;11.19;90.27;99085.78;3592639;40;9967;-48
2021/04/29 05:33:00;;;;;;;;;73.67;52.33;;;;;11.16;90.21;99086.88;3592821;40;9941;-49
2021/04/29 05:35:26;;;;;;;;;73.00;53.33;;;;;11.24;90.30;99082.72;3597084;39;10075;-48
2021/04/29 05:37:54;;;;;;;;;74.33;50.33;;;;;11.17;91.08;99075.13;3593481;39;9833;-47
2021/04/29 05:40:21;;;;;;;;;73.00;51.00;;;;;11.21;89.75;99070.38;3586671;40;10943;-47
2021/04/29 05:42:48;;;;;;;;;73.00;53.00;;;;;11.24;89.86;99067.44;3596699;39;9956;-47
2021/04/29 05:45:15;;;;;;;;;67.67;51.00;;;;;11.39;90.68;99074.38;3596350;39;10087;-51
2021/04/29 05:47:42;;;;;;;;;66.00;52.67;;;;;11.15;90.84;99074.38;3592114;40;10163;-48
2021/04/29 05:50:10;;;;;;;;;69.33;50.67;;;;;11.09;90.52;99074.84;3599255;39;11968;-46
2021/04/29 05:52:39;;;;;;;;;64.33;48.00;;;;;11.10;90.77;99075.69;3594017;39;10282;-47
2021/04/29 05:55:08;;;;;;;;;74.67;55.33;;;;;11.11;90.42;99078.28;3596830;39;9978;-48
2021/04/29 05:57:36;;;;;;;;;58.33;45.67;;;;;11.36;89.82;99076.44;3595074;39;9937;-50
2021/04/29 06:00:06;;;;;;;;;71.00;52.33;;;;;11.61;89.71;99075.44;3590595;40;10552;-46
2021/04/29 06:02:33;;;;;;;;;75.33;52.00;;;;;11.44;88.92;99076.72;3591773;40;10758;-48
2021/04/29 06:05:00;;;;;;;;;65.67;48.33;;;;;11.53;89.24;99084.13;3596457;39;9853;-46
2021/04/29 06:07:27;;;;;;;;;71.00;51.67;;;;;11.41;89.81;99085.03;3588442;40;10041;-47
2021/04/29 06:09:54;;;;;;;;;69.67;51.00;;;;;11.32;89.82;99075.84;3585263;40;9859;-50
2021/04/29 06:12:20;;;;;;;;;69.33;51.00;;;;;11.46;89.21;99080.16;3586641;40;9884;-48
2021/04/29 06:14:47;;;;;;;;;73.00;54.33;;;;;11.46;90.31;99080.16;3586860;40;10148;-48
2021/04/29 06:17:14;;;;;;;;;70.33;53.00;;;;;11.61;89.81;99076.34;3590391;40;9877;-49
2021/04/29 06:19:41;;;;;;;;;69.00;50.33;;;;;11.45;89.92;99083.81;3595154;40;9946;-49
2021/04/29 06:22:08;;;;;;;;;68.67;49.33;;;;;11.61;88.84;99086.19;3595086;39;9951;-47
2021/04/29 06:24:35;;;;;;;;;74.67;49.67;;;;;11.55;89.66;99095.59;3596926;40;9894;-48
2021/04/29 06:27:02;;;;;;;;;72.67;50.33;;;;;11.43;89.50;99099.22;3593143;40;9941;-46
2021/04/29 06:29:30;;;;;;;;;69.67;53.00;;;;;11.57;89.49;99101.72;3586027;40;9919;-51
2021/04/29 06:31:58;;;;;;;;;68.33;48.00;;;;;11.55;89.54;99092.91;3588744;40;9967;-50
2021/04/29 06:34:25;;;;;;;;;72.00;52.00;;;;;11.69;89.60;99093.69;3594571;39;9986;-48
2021/04/29 06:36:52;;;;;;;;;64.67;48.00;;;;;11.59;88.87;99099.78;3598145;39;10074;-48
2021/04/29 06:39:20;;;;;;;;;66.67;49.33;;;;;11.69;88.89;99101.75;3595203;40;10077;-49
2021/04/29 06:41:47;;;;;;;;;66.33;51.00;;;;;11.60;89.83;99103.31;3588146;40;9957;-49
2021/04/29 06:44:14;;;;;;;;;76.33;54.67;;;;;11.46;89.62;99098.97;3591817;40;9902;-48
2021/04/29 06:46:43;;;;;;;;;72.00;52.00;;;;;11.49;90.36;99097.91;3596752;40;10046;-47
2021/04/29 06:49:10;;;;;;;;;70.67;53.33;;;;;11.43;90.55;99099.22;3601930;39;9831;-48
2021/04/29 06:51:37;;;;;;;;;72.67;53.00;;;;;11.51;89.37;99106.72;3597773;40;10145;-48
2021/04/29 06:54:06;;;;;;;;;64.67;51.67;;;;;11.58;89.14;99113.31;3593194;40;10087;-50
2021/04/29 06:56:35;;;;;;;;;70.00;50.67;;;;;11.82;89.05;99121.38;3586811;40;10531;-46
2021/04/29 06:59:06;;;;;;;;;75.00;53.67;;;;;11.70;88.83;99123.16;3589576;40;9953;-49
2021/04/29 07:01:33;;;;;;;;;78.33;53.00;;;;;11.65;88.88;99126.19;3597061;40;9802;-48
2021/04/29 07:04:01;;;;;;;;;65.67;49.67;;;;;11.71;89.63;99118.63;3591975;40;9864;-50
2021/04/29 07:06:28;;;;;;;;;64.33;48.67;;;;;11.81;89.17;99125.03;3587979;40;9975;-47
2021/04/29 07:08:58;;;;;;;;;69.67;51.33;;;;;11.79;89.05;99117.09;3594923;40;10000;-50
2021/04/29 07:11:27;;;;;;;;;69.33;51.33;;;;;11.88;89.27;99122.81;3587793;40;10029;-49
2021/04/29 07:13:54;;;;;;;;;79.67;54.00;;;;;11.90;88.54;99124.41;3590121;40;10095;-50
2021/04/29 07:16:21;;;;;;;;;70.33;55.33;;;;;12.07;88.16;99129.31;3587265;40;10110;-50
2021/04/29 07:18:49;;;;;;;;;68.33;51.33;;;;;12.04;88.33;99129.56;3587661;40;10808;-52
2021/04/29 07:21:16;;;;;;;;;72.00;54.00;;;;;12.06;87.83;99122.25;3588426;40;9893;-50
2021/04/29 07:23:47;;;;;;;;;74.67;54.00;;;;;12.19;87.75;99113.19;3590785;40;9957;-49
2021/04/29 07:26:18;;;;;;;;;68.67;52.00;;;;;12.20;87.41;99110.41;3590876;40;9967;-50
2021/04/29 07:28:46;;;;;;;;;73.33;52.00;;;;;12.38;87.00;99116.19;3590074;40;9835;-52
2021/04/29 07:31:13;;;;;;;;;72.67;52.67;;;;;12.45;86.35;99125.50;3596196;40;9810;-51
2021/04/29 07:33:41;;;;;;;;;71.33;51.00;;;;;12.37;86.06;99127.91;3595619;39;9851;-49
2021/04/29 07:36:08;;;;;;;;;64.00;46.33;;;;;12.28;87.02;99124.13;3590414;40;9890;-48
2021/04/29 07:38:36;;;;;;;;;67.33;52.00;;;;;12.35;85.99;99131.72;3586529;40;10121;-48
2021/04/29 07:41:04;;;;;;;;;63.67;50.67;;;;;12.41;85.98;99126.72;3589105;40;10609;-46
2021/04/29 07:43:31;;;;;;;;;70.33;52.33;;;;;12.38;86.14;99134.19;3595257;39;10431;-47
2021/04/29 07:45:58;;;;;;;;;68.67;48.67;;;;;12.24;86.23;99137.94;3599954;39;9773;-51
2021/04/29 07:48:25;;;;;;;;;62.67;45.67;;;;;12.34;85.98;99133.56;3595228;40;9844;-51
2021/04/29 07:50:52;;;;;;;;;59.00;45.33;;;;;12.44;85.65;99133.69;3607370;39;9768;-49
2021/04/29 07:53:19;;;;;;;;;66.00;45.33;;;;;12.51;85.13;99124.16;3606416;39;10208;-46
2021/04/29 07:55:46;;;;;;;;;58.67;46.00;;;;;12.62;84.59;99126.03;3591891;39;9859;-53
2021/04/29 07:58:13;;;;;;;;;64.00;42.67;;;;;12.74;84.39;99135.78;3587922;40;9956;-51
2021/04/29 08:00:54;;;;;;;;;66.33;45.33;;;;;12.85;84.05;99130.44;3587173;40;9849;-54
2021/04/29 08:03:21;;;;;;;;;58.33;43.33;;;;;12.86;84.25;99128.59;3592673;40;9864;-49
2021/04/29 08:05:49;;;;;;;;;59.33;43.00;;;;;12.94;84.54;99134.22;3597165;40;10716;-50
2021/04/29 08:08:17;;;;;;;;;61.67;42.33;;;;;13.21;83.86;99139.22;3587906;39;10784;-49
2021/04/29 08:10:45;;;;;;;;;55.33;42.67;;;;;13.10;83.56;99133.84;3594057;40;10072;-48
2021/04/29 08:13:13;;;;;;;;;63.67;44.00;;;;;13.03;83.80;99127.22;3597445;39;10305;-51
2021/04/29 08:15:42;;;;;;;;;60.67;46.00;;;;;13.23;83.28;99131.00;3589208;39;10081;-53
2021/04/29 08:18:11;;;;;;;;;59.00;45.67;;;;;13.32;82.85;99135.66;3587796;40;10475;-50
2021/04/29 08:20:40;;;;;;;;;56.67;43.67;;;;;13.42;82.24;99135.78;3593017;40;10108;-49
2021/04/29 08:23:07;;;;;;;;;59.25;43.75;;;;;13.45;82.40;99138.22;3597544;39;11068;-48
2021/04/29 08:25:34;;;;;;;;;63.00;44.00;;;;;13.23;83.07;99137.25;3596226;40;10536;-47
2021/04/29 08:28:02;;;;;;;;;59.33;44.33;;;;;13.42;82.64;99136.63;3597250;40;10409;-50
2021/04/29 08:30:30;;;;;;;;;56.50;42.00;;;;;13.38;82.28;99127.94;3597370;39;10796;-49
2021/04/29 08:32:59;;;;;;;;;60.00;42.00;;;;;13.47;82.15;99128.16;3589407;39;10841;-48
2021/04/29 08:35:27;;;;;;;;;52.75;40.75;;;;;13.48;81.75;99119.09;3586245;40;10999;-49
2021/04/29 08:37:54;;;;;;;;;59.33;45.00;;;;;13.89;80.81;99114.78;3586827;40;10401;-48
2021/04/29 08:40:23;;;;;;;;;53.50;41.25;;;;;13.80;80.74;99117.28;3596414;40;10643;-48
2021/04/29 08:42:51;;;;;;;;;56.25;42.00;;;;;14.23;79.01;99110.91;3596079;39;14128;-47
2021/04/29 08:45:18;;;;;;;;;51.50;40.50;;;;;14.22;78.67;99101.13;3592141;39;14051;-50
2021/04/29 08:47:53;;;;;;;;;49.00;37.25;;;;;14.80;77.10;99103.31;3596998;40;14248;-48
2021/04/29 08:50:23;;;;;;;;;54.00;41.75;;;;;15.15;75.62;99105.56;3604813;39;14053;-51
2021/04/29 08:52:51;;;;;;;;;52.00;39.00;;;;;15.05;75.62;99098.41;3607021;39;14150;-52
2021/04/29 08:55:22;;;;;;;;;55.50;41.50;;;;;15.68;73.97;99092.69;3604296;39;14044;-52
2021/04/29 08:57:50;;;;;;;;;51.50;40.50;;;;;16.72;70.47;99101.84;3586732;40;14054;-52
2021/04/29 09:00:20;;;;;;;;;53.50;43.00;;;;;16.48;70.63;99098.75;3586890;40;14054;-52
2021/04/29 09:02:48;;;;;;;;;50.75;41.50;;;;;16.69;70.38;99096.69;3593815;40;14154;-52
2021/04/29 09:05:16;;;;;;;;;49.75;38.75;;;;;17.25;68.94;99095.78;3596435;39;14799;-50
2021/04/29 09:08:09;;;;;;;;;52.50;38.75;;;;;16.95;69.51;99086.06;3594441;39;14247;-51
2021/04/29 09:10:41;;;;;;;;;51.50;36.00;;;;;18.02;66.57;99089.97;3592725;39;14562;-51
2021/04/29 09:13:24;;;;;;;;;53.25;40.50;;;;;16.94;68.57;99084.38;3590699;40;14061;-53
2021/04/29 09:15:52;;;;;;;;;48.25;36.75;;;;;17.34;68.37;99084.00;3594475;39;14040;-56
2021/04/29 09:18:21;;;;;;;;;44.50;36.75;;;;;17.57;67.50;99078.16;3588228;39;14088;-54
2021/04/29 09:20:57;;;;;;;;;47.25;34.75;;;;;17.49;67.89;99080.78;3586905;40;14278;-54
2021/04/29 09:23:34;;;;;;;;;47.50;34.75;;;;;17.33;66.93;99074.16;3589955;40;14031;-57
2021/04/29 09:26:17;;;;;;;;;52.75;37.75;;;;;17.70;65.66;99078.63;3594857;40;14066;-54
2021/04/29 09:28:53;;;;;;;;;40.75;33.75;;;;;17.98;66.20;99076.72;3588332;39;14038;-55
2021/04/29 09:31:21;;;;;;;;;47.50;34.75;;;;;17.58;66.14;99077.13;3585966;40;14045;-55
2021/04/29 09:33:59;;;;;;;;;46.00;36.50;;;;;18.61;63.66;99077.47;3595310;39;14063;-56
2021/04/29 09:36:44;;;;;;;;;45.00;35.75;;;;;18.48;64.41;99080.63;3594638;39;14037;-56
2021/04/29 09:39:19;;;;;;;;;40.00;34.00;;;;;18.73;62.99;99069.91;3591273;40;14025;-55
2021/04/29 09:41:49;;;;;;;;;46.25;37.00;;;;;18.04;65.45;99069.78;3587928;40;14052;-53
2021/04/29 09:44:20;;;;;;;;;44.00;35.25;;;;;16.88;67.77;99066.84;3592113;40;14094;-57
2021/04/29 09:46:59;;;;;;;;;39.00;33.75;;;;;16.69;69.09;99066.88;3592722;40;14208;-55
2021/04/29 09:49:34;;;;;;;;;43.50;35.00;;;;;17.42;68.70;99066.94;3598844;39;14800;-54
2021/04/29 09:52:04;;;;;;;;;42.25;35.75;;;;;16.98;69.53;99061.38;3590007;39;14041;-56
2021/04/29 09:54:39;;;;;;;;;47.00;35.50;;;;;17.81;67.13;99063.13;3585404;40;14040;-53
2021/04/29 09:57:10;;;;;;;;;36.50;33.00;;;;;19.01;63.26;99066.00;3594781;40;14556;-53
2021/04/29 09:59:56;;;;;;;;;39.75;34.00;;;;;18.72;62.72;99063.63;3593951;39;14060;-57
2021/04/29 10:02:24;;;;;;;;;37.75;31.00;;;;;18.90;63.82;99060.81;3593695;39;14211;-56
2021/04/29 10:04:53;;;;;;;;;40.00;31.25;;;;;18.33;64.00;99063.22;3593038;40;14031;-55
2021/04/29 10:07:21;;;;;;;;;30.75;25.50;;;;;18.69;62.59;99071.22;3593097;40;13988;-55
2021/04/29 10:09:49;;;;;;;;;30.25;25.25;;;;;18.55;62.98;99062.66;3590127;39;14617;-56
2021/04/29 10:12:21;;;;;;;;;29.75;22.25;;;;;18.61;62.77;99067.44;3590065;40;14082;-58
2021/04/29 10:14:51;;;;;;;;;32.25;23.75;;;;;18.56;63.53;99066.22;3587980;40;13952;-57
2021/04/29 10:17:20;;;;;;;;;31.75;24.50;;;;;17.95;64.10;99073.44;3586859;40;14000;-55
2021/04/29 10:19:56;;;;;;;;;31.00;28.25;;;;;17.88;65.87;99066.94;3593850;40;15132;-57
2021/04/29 10:22:25;;;;;;;;;32.00;25.25;;;;;18.12;64.32;99066.28;3595124;40;14047;-56
2021/04/29 10:24:52;;;;;;;;;36.00;26.75;;;;;17.81;65.04;99063.97;3592796;40;14054;-58
2021/04/29 10:27:28;;;;;;;;;34.75;28.50;;;;;17.75;64.99;99060.00;3586076;40;14079;-51
2021/04/29 10:30:07;;;;;;;;;32.25;25.75;;;;;17.47;65.90;99055.66;3586472;40;14634;-53
2021/04/29 10:32:37;;;;;;;;;30.75;25.50;;;;;17.81;65.79;99058.53;3596801;39;14049;-54
2021/04/29 10:35:34;;;;;;;;;32.00;27.50;;;;;17.48;65.67;99049.19;3596660;39;14588;-55
2021/04/29 10:38:03;;;;;;;;;29.00;25.25;;;;;17.78;65.85;99048.81;3591051;40;14089;-51
2021/04/29 10:40:39;;;;;;;;;31.75;24.00;;;;;18.51;63.65;99049.53;3592974;39;14058;-49
2021/04/29 10:43:10;;;;;;;;;31.50;27.75;;;;;18.31;64.27;99036.19;3596461;39;14004;-51
2021/04/29 10:45:37;;;;;;;;;23.75;23.50;;;;;18.69;63.92;99038.59;3596846;39;14058;-54
2021/04/29 10:48:08;;;;;;;;;27.00;25.75;;;;;18.62;62.85;99036.53;3604189;39;14045;-54
2021/04/29 10:50:51;;;;;;;;;28.50;19.25;;;;;18.50;63.32;99040.53;3605117;39;14082;-55
2021/04/29 10:53:31;;;;;;;;;24.50;23.50;;;;;18.75;63.46;99036.13;3602021;39;14019;-56
2021/04/29 10:56:19;;;;;;;;;27.50;25.25;;;;;18.47;62.69;99040.84;3596556;39;13971;-55
2021/04/29 10:58:48;;;;;;;;;24.25;21.50;;;;;18.67;63.24;99043.34;3596232;39;14160;-54
2021/04/29 11:01:19;;;;;;;;;29.00;24.25;;;;;18.45;63.26;99051.03;3594773;40;14019;-54
2021/04/29 11:03:51;;;;;;;;;28.50;23.25;;;;;18.53;63.56;99061.97;3587050;39;14073;-53
2021/04/29 11:06:25;;;;;;;;;27.50;24.25;;;;;18.29;63.34;99051.78;3586352;40;14193;-54
2021/04/29 11:08:55;;;;;;;;;29.00;25.50;;;;;18.67;62.69;99048.78;3586394;40;14004;-54
2021/04/29 11:11:30;;;;;;;;;28.25;23.00;;;;;19.74;61.01;99043.56;3586355;40;13999;-53
2021/04/29 11:14:08;;;;;;;;;22.75;19.50;;;;;19.42;59.93;99043.47;3586722;40;13968;-52
2021/04/29 11:16:52;;;;;;;;;25.00;19.50;;;;;20.53;58.39;99043.00;3586082;40;13998;-55
2021/04/29 11:19:58;;;;;;;;;35.00;28.75;;;;;19.73;60.01;99033.69;3586467;40;14490;-56
2021/04/29 11:22:37;;;;;;;;;31.50;22.75;;;;;19.17;61.42;99046.16;3544057;40;13992;-52
2021/04/29 11:25:09;;;;;;;;;23.75;20.75;;;;;19.17;60.91;99045.28;3544523;40;13996;-51
2021/04/29 11:27:40;;;;;;;;;23.25;18.00;;;;;19.08;60.54;99045.25;3570678;40;14035;-54
2021/04/29 11:30:13;;;;;;;;;20.25;20.00;;;;;18.95;61.30;99044.03;3595861;39;14038;-50
2021/04/29 11:32:53;;;;;;;;;18.75;16.75;;;;;18.72;61.85;99046.44;3596361;40;13987;-50
2021/04/29 11:35:23;;;;;;;;;16.75;13.75;;;;;18.81;61.93;99045.50;3596237;40;14201;-54